PWSweather.com
Personal Weather Stations
Station Observations

ChardChardGB

Lat: 50.877408, Lon: -2.94964741

Elevation: 341

Station Type: WS3083

http://www.merriott-astro.co.uk/weather/index.htm

High Low Average
Temperature 72.7°F22.6°F 52.9°F11.6°F 64.1°F17.8°F
Dew Point 57.9°F14.4°F 47.9°F8.8°F 53.1°F11.7°F
Winds 10.7 mph -17.2 mph - Calm Calm 5.3 mph 8.5 mph
Wind Gusts 10.7 mph17.2 mph -- 5.3 mph8.5 mph
Humidity 90% 42% 70%
Pressure 29.82 in1009.80 in 29.70 in1005.80 in -
Precipitation 0.00 in0.00 in - -
Hour Temp Dew Point Humidity Winds Wind Gusts Pressure Precip Precip Rate Daily Precip Total
12:08 AM 54.1°F12.3°C 50.0°F10.0°C 86% Calm Calm -- 29.78 in1008.5 mb 0.00 in0.0 mm 0.00 in0.0 mm 0.00 in0.0 mm
12:38 AM 53.2°F11.8°C 49.8°F9.9°C 88% Calm Calm -- 29.79 in1008.8 mb 0.00 in0.0 mm 0.00 in0.0 mm 0.00 in0.0 mm
01:08 AM 52.9°F11.6°C 50.0°F10.0°C 90% Calm Calm -- 29.80 in1009.1 mb 0.00 in0.0 mm 0.00 in0.0 mm 0.00 in0.0 mm
01:38 AM 53.6°F12.0°C 50.7°F10.4°C 90% Calm Calm -- 29.80 in1009.1 mb 0.00 in0.0 mm 0.00 in0.0 mm 0.00 in0.0 mm
02:08 AM 58.6°F14.8°C 52.8°F11.6°C 81% Calm Calm -- 29.80 in1009.1 mb 0.00 in0.0 mm 0.00 in0.0 mm 0.00 in0.0 mm
02:38 AM 59.2°F15.1°C 50.5°F10.3°C 73% Calm Calm -- 29.80 in1009.1 mb 0.00 in0.0 mm 0.00 in0.0 mm 0.00 in0.0 mm
03:08 AM 62.4°F16.9°C 51.3°F10.7°C 67% 3.8 mph S6.1 kmh S 3.8 mph6.1 kmh 29.80 in1009.1 mb 0.00 in0.0 mm 0.00 in0.0 mm 0.00 in0.0 mm
03:38 AM 64.8°F18.2°C 51.0°F10.6°C 61% 4.5 mph NW7.2 kmh NW 4.5 mph7.2 kmh 29.81 in1009.5 mb 0.00 in0.0 mm 0.00 in0.0 mm 0.00 in0.0 mm
04:08 AM 65.5°F18.6°C 50.3°F10.2°C 58% 5.4 mph N8.7 kmh N 5.4 mph8.7 kmh 29.82 in1009.8 mb 0.00 in0.0 mm 0.00 in0.0 mm 0.00 in0.0 mm
04:38 AM 66.4°F19.1°C 48.2°F9.0°C 52% 6.9 mph SE11.1 kmh SE 6.9 mph11.1 kmh 29.82 in1009.8 mb 0.00 in0.0 mm 0.00 in0.0 mm 0.00 in0.0 mm
05:08 AM 66.0°F18.9°C 47.9°F8.8°C 52% 6.0 mph NW9.7 kmh NW 6.0 mph9.7 kmh 29.82 in1009.8 mb 0.00 in0.0 mm 0.00 in0.0 mm 0.00 in0.0 mm
05:38 AM 66.7°F19.3°C 48.5°F9.2°C 52% 3.8 mph SW6.1 kmh SW 3.8 mph6.1 kmh 29.82 in1009.8 mb 0.00 in0.0 mm 0.00 in0.0 mm 0.00 in0.0 mm
06:08 AM 66.6°F19.2°C 48.4°F9.1°C 52% 3.8 mph SW6.1 kmh SW 3.8 mph6.1 kmh 29.81 in1009.5 mb 0.00 in0.0 mm 0.00 in0.0 mm 0.00 in0.0 mm
06:38 AM 68.9°F20.5°C 48.9°F9.4°C 49% 7.6 mph SE12.2 kmh SE 7.6 mph12.2 kmh 29.81 in1009.5 mb 0.00 in0.0 mm 0.00 in0.0 mm 0.00 in0.0 mm
07:08 AM 68.9°F20.5°C 49.5°F9.7°C 50% 3.1 mph SW5.0 kmh SW 3.1 mph5.0 kmh 29.80 in1009.1 mb 0.00 in0.0 mm 0.00 in0.0 mm 0.00 in0.0 mm
07:38 AM 70.0°F21.1°C 49.9°F9.9°C 49% 7.6 mph S12.2 kmh S 7.6 mph12.2 kmh 29.79 in1008.8 mb 0.00 in0.0 mm 0.00 in0.0 mm 0.00 in0.0 mm
08:08 AM 71.6°F22.0°C 51.4°F10.8°C 49% 6.9 mph SW11.1 kmh SW 6.9 mph11.1 kmh 29.80 in1009.1 mb 0.00 in0.0 mm 0.00 in0.0 mm 0.00 in0.0 mm
08:38 AM 70.5°F21.4°C 51.0°F10.6°C 50% 6.9 mph W11.1 kmh W 6.9 mph11.1 kmh 29.79 in1008.8 mb 0.00 in0.0 mm 0.00 in0.0 mm 0.00 in0.0 mm
09:08 AM 72.1°F22.3°C 50.2°F10.1°C 46% 3.8 mph SW6.1 kmh SW 3.8 mph6.1 kmh 29.80 in1009.1 mb 0.00 in0.0 mm 0.00 in0.0 mm 0.00 in0.0 mm
09:38 AM 72.3°F22.4°C 50.4°F10.2°C 46% 4.5 mph NW7.2 kmh NW 4.5 mph7.2 kmh 29.79 in1008.8 mb 0.00 in0.0 mm 0.00 in0.0 mm 0.00 in0.0 mm
10:08 AM 71.8°F22.1°C 49.9°F9.9°C 46% 3.1 mph SW5.0 kmh SW 3.1 mph5.0 kmh 29.78 in1008.5 mb 0.00 in0.0 mm 0.00 in0.0 mm 0.00 in0.0 mm
10:38 AM 72.7°F22.6°C 48.3°F9.1°C 42% 6.9 mph SE11.1 kmh SE 6.9 mph11.1 kmh 29.78 in1008.5 mb 0.00 in0.0 mm 0.00 in0.0 mm 0.00 in0.0 mm
11:08 AM 72.5°F22.5°C 49.9°F9.9°C 45% 6.0 mph SW9.7 kmh SW 6.0 mph9.7 kmh 29.77 in1008.1 mb 0.00 in0.0 mm 0.00 in0.0 mm 0.00 in0.0 mm
11:38 AM 71.1°F21.7°C 52.5°F11.4°C 52% 4.5 mph S7.2 kmh S 4.5 mph7.2 kmh 29.78 in1008.5 mb 0.00 in0.0 mm 0.00 in0.0 mm 0.00 in0.0 mm
12:08 PM 69.3°F20.7°C 52.4°F11.3°C 55% 6.9 mph SW11.1 kmh SW 6.9 mph11.1 kmh 29.78 in1008.5 mb 0.00 in0.0 mm 0.00 in0.0 mm 0.00 in0.0 mm
12:38 PM 69.1°F20.6°C 52.7°F11.5°C 56% 2.2 mph W3.5 kmh W 2.2 mph3.5 kmh 29.78 in1008.5 mb 0.00 in0.0 mm 0.00 in0.0 mm 0.00 in0.0 mm
01:08 PM 66.2°F19.0°C 53.7°F12.1°C 64% 6.9 mph NW11.1 kmh NW 6.9 mph11.1 kmh 29.77 in1008.1 mb 0.00 in0.0 mm 0.00 in0.0 mm 0.00 in0.0 mm
01:38 PM 64.0°F17.8°C 54.1°F12.3°C 70% 6.0 mph SW9.7 kmh SW 6.0 mph9.7 kmh 29.77 in1008.1 mb 0.00 in0.0 mm 0.00 in0.0 mm 0.00 in0.0 mm
02:08 PM 62.8°F17.1°C 55.1°F12.8°C 76% 6.9 mph S11.1 kmh S 6.9 mph11.1 kmh 29.78 in1008.5 mb 0.00 in0.0 mm 0.00 in0.0 mm 0.00 in0.0 mm
02:38 PM 62.4°F16.9°C 56.2°F13.4°C 80% 6.9 mph S11.1 kmh S 6.9 mph11.1 kmh 29.78 in1008.5 mb 0.00 in0.0 mm 0.00 in0.0 mm 0.00 in0.0 mm
03:08 PM 62.2°F16.8°C 56.3°F13.5°C 81% 10.7 mph S17.2 kmh S 10.7 mph17.2 kmh 29.77 in1008.1 mb 0.00 in0.0 mm 0.00 in0.0 mm 0.00 in0.0 mm
03:38 PM 61.5°F16.4°C 56.3°F13.5°C 83% 3.1 mph SE5.0 kmh SE 3.1 mph5.0 kmh 29.77 in1008.1 mb 0.00 in0.0 mm 0.00 in0.0 mm 0.00 in0.0 mm
04:08 PM 61.2°F16.2°C 56.9°F13.8°C 86% 1.6 mph SW2.6 kmh SW 1.6 mph2.6 kmh 29.76 in1007.8 mb 0.00 in0.0 mm 0.00 in0.0 mm 0.00 in0.0 mm
04:38 PM 61.5°F16.4°C 57.9°F14.4°C 88% 6.9 mph SE11.1 kmh SE 6.9 mph11.1 kmh 29.76 in1007.8 mb 0.00 in0.0 mm 0.00 in0.0 mm 0.00 in0.0 mm
05:08 PM 61.5°F16.4°C 57.6°F14.2°C 87% 5.4 mph S8.7 kmh S 5.4 mph8.7 kmh 29.75 in1007.5 mb 0.00 in0.0 mm 0.00 in0.0 mm 0.00 in0.0 mm
05:38 PM 61.5°F16.4°C 57.0°F13.9°C 85% 7.6 mph NW12.2 kmh NW 7.6 mph12.2 kmh 29.75 in1007.5 mb 0.00 in0.0 mm 0.00 in0.0 mm 0.00 in0.0 mm
06:08 PM 61.7°F16.5°C 56.5°F13.6°C 83% 5.4 mph N8.7 kmh N 5.4 mph8.7 kmh 29.74 in1007.1 mb 0.00 in0.0 mm 0.00 in0.0 mm 0.00 in0.0 mm
06:38 PM 61.9°F16.6°C 57.0°F13.9°C 84% 7.6 mph SW12.2 kmh SW 7.6 mph12.2 kmh 29.73 in1006.8 mb 0.00 in0.0 mm 0.00 in0.0 mm 0.00 in0.0 mm
07:08 PM 62.4°F16.9°C 56.9°F13.8°C 82% 9.8 mph SW15.8 kmh SW 9.8 mph15.8 kmh 29.73 in1006.8 mb 0.00 in0.0 mm 0.00 in0.0 mm 0.00 in0.0 mm
07:38 PM 62.4°F16.9°C 56.5°F13.6°C 81% 9.8 mph SW15.8 kmh SW 9.8 mph15.8 kmh 29.73 in1006.8 mb 0.00 in0.0 mm 0.00 in0.0 mm 0.00 in0.0 mm
08:08 PM 62.2°F16.8°C 56.7°F13.7°C 82% 6.9 mph SW11.1 kmh SW 6.9 mph11.1 kmh 29.72 in1006.4 mb 0.00 in0.0 mm 0.00 in0.0 mm 0.00 in0.0 mm
08:38 PM 62.1°F16.7°C 56.8°F13.8°C 83% 6.0 mph S9.7 kmh S 6.0 mph9.7 kmh 29.72 in1006.4 mb 0.00 in0.0 mm 0.00 in0.0 mm 0.00 in0.0 mm
09:08 PM 61.5°F16.4°C 56.6°F13.7°C 84% 6.0 mph W9.7 kmh W 6.0 mph9.7 kmh 29.71 in1006.1 mb 0.00 in0.0 mm 0.00 in0.0 mm 0.00 in0.0 mm
09:38 PM 61.2°F16.2°C 57.3°F14.1°C 87% 6.0 mph W9.7 kmh W 6.0 mph9.7 kmh 29.71 in1006.1 mb 0.00 in0.0 mm 0.00 in0.0 mm 0.00 in0.0 mm
10:08 PM 61.7°F16.5°C 57.8°F14.3°C 87% 9.8 mph SW15.8 kmh SW 9.8 mph15.8 kmh 29.72 in1006.4 mb 0.00 in0.0 mm 0.00 in0.0 mm 0.00 in0.0 mm
10:38 PM 61.5°F16.4°C 56.6°F13.7°C 84% 9.8 mph SW15.8 kmh SW 9.8 mph15.8 kmh 29.71 in1006.1 mb 0.00 in0.0 mm 0.00 in0.0 mm 0.00 in0.0 mm
11:08 PM 61.9°F16.6°C 57.0°F13.9°C 84% 6.0 mph S9.7 kmh S 6.0 mph9.7 kmh 29.71 in1006.1 mb 0.00 in0.0 mm 0.00 in0.0 mm 0.00 in0.0 mm
11:38 PM 61.3°F16.3°C 56.1°F13.4°C 83% 5.4 mph SW8.7 kmh SW 5.4 mph8.7 kmh 29.70 in1005.8 mb 0.00 in0.0 mm 0.00 in0.0 mm 0.00 in0.0 mm